sensor_id;sensor_type;location;lat;lon;timestamp;temperature;humidity
39997;DHT22;25688;52.338;21.072;2022-08-21T00:00:25;19.40;99.90
39997;DHT22;25688;52.338;21.072;2022-08-21T00:10:35;19.30;99.90
39997;DHT22;25688;52.338;21.072;2022-08-21T00:13:05;19.30;99.90
39997;DHT22;25688;52.338;21.072;2022-08-21T00:15:33;19.30;99.90
39997;DHT22;25688;52.338;21.072;2022-08-21T00:18:12;19.30;99.90
39997;DHT22;25688;52.338;21.072;2022-08-21T00:20:54;19.30;99.90
39997;DHT22;25688;52.338;21.072;2022-08-21T00:23:20;19.20;99.90
39997;DHT22;25688;52.338;21.072;2022-08-21T00:25:49;19.20;99.90
39997;DHT22;25688;52.338;21.072;2022-08-21T00:28:15;19.10;99.90
39997;DHT22;25688;52.338;21.072;2022-08-21T00:31:02;19.10;99.90
39997;DHT22;25688;52.338;21.072;2022-08-21T00:33:30;19.00;99.90
39997;DHT22;25688;52.338;21.072;2022-08-21T00:35:56;18.90;99.90
39997;DHT22;25688;52.338;21.072;2022-08-21T00:38:23;18.70;99.90
39997;DHT22;25688;52.338;21.072;2022-08-21T00:41:01;18.60;99.90
39997;DHT22;25688;52.338;21.072;2022-08-21T00:43:33;18.50;99.90
39997;DHT22;25688;52.338;21.072;2022-08-21T00:46:03;18.40;99.90
39997;DHT22;25688;52.338;21.072;2022-08-21T00:48:29;18.20;99.90
39997;DHT22;25688;52.338;21.072;2022-08-21T00:51:07;18.10;99.90
39997;DHT22;25688;52.338;21.072;2022-08-21T00:53:36;18.10;99.90
39997;DHT22;25688;52.338;21.072;2022-08-21T00:58:59;17.90;99.90
39997;DHT22;25688;52.338;21.072;2022-08-21T01:01:32;17.70;99.90
39997;DHT22;25688;52.338;21.072;2022-08-21T01:03:58;17.60;99.90
39997;DHT22;25688;52.338;21.072;2022-08-21T01:06:27;17.50;99.90
39997;DHT22;25688;52.338;21.072;2022-08-21T01:09:00;17.40;99.90
39997;DHT22;25688;52.338;21.072;2022-08-21T01:11:26;17.30;99.90
39997;DHT22;25688;52.338;21.072;2022-08-21T01:13:53;17.20;99.90
39997;DHT22;25688;52.338;21.072;2022-08-21T01:16:21;17.10;99.90
39997;DHT22;25688;52.338;21.072;2022-08-21T01:18:48;17.00;99.90
39997;DHT22;25688;52.338;21.072;2022-08-21T01:21:21;16.90;99.90
39997;DHT22;25688;52.338;21.072;2022-08-21T01:23:57;16.90;99.90
39997;DHT22;25688;52.338;21.072;2022-08-21T01:26:43;16.80;99.90
39997;DHT22;25688;52.338;21.072;2022-08-21T01:29:30;16.80;99.90
39997;DHT22;25688;52.338;21.072;2022-08-21T01:31:59;16.80;99.90
39997;DHT22;25688;52.338;21.072;2022-08-21T01:34:39;16.70;99.90
39997;DHT22;25688;52.338;21.072;2022-08-21T01:37:10;16.70;99.90
39997;DHT22;25688;52.338;21.072;2022-08-21T01:39:36;16.60;99.90
39997;DHT22;25688;52.338;21.072;2022-08-21T01:42:03;16.60;99.90
39997;DHT22;25688;52.338;21.072;2022-08-21T01:44:29;16.60;99.90
39997;DHT22;25688;52.338;21.072;2022-08-21T01:46:57;16.60;99.90
39997;DHT22;25688;52.338;21.072;2022-08-21T01:49:32;16.60;99.90
39997;DHT22;25688;52.338;21.072;2022-08-21T01:52:11;16.40;99.90
39997;DHT22;25688;52.338;21.072;2022-08-21T01:54:39;16.30;99.90
39997;DHT22;25688;52.338;21.072;2022-08-21T01:59:53;16.30;99.90
39997;DHT22;25688;52.338;21.072;2022-08-21T02:02:25;16.50;99.90
39997;DHT22;25688;52.338;21.072;2022-08-21T02:04:51;16.40;99.90
39997;DHT22;25688;52.338;21.072;2022-08-21T02:07:17;16.50;99.90
39997;DHT22;25688;52.338;21.072;2022-08-21T02:09:47;16.50;99.90
39997;DHT22;25688;52.338;21.072;2022-08-21T02:12:19;16.40;99.90
39997;DHT22;25688;52.338;21.072;2022-08-21T02:14:44;16.40;99.90
39997;DHT22;25688;52.338;21.072;2022-08-21T02:17:22;16.40;99.90
39997;DHT22;25688;52.338;21.072;2022-08-21T02:20:03;16.30;99.90
39997;DHT22;25688;52.338;21.072;2022-08-21T02:22:29;16.30;99.90
39997;DHT22;25688;52.338;21.072;2022-08-21T02:25:02;16.20;99.90
39997;DHT22;25688;52.338;21.072;2022-08-21T02:27:28;16.20;99.90
39997;DHT22;25688;52.338;21.072;2022-08-21T02:29:57;16.20;99.90
39997;DHT22;25688;52.338;21.072;2022-08-21T02:32:29;16.20;99.90
39997;DHT22;25688;52.338;21.072;2022-08-21T02:34:54;16.10;99.90
39997;DHT22;25688;52.338;21.072;2022-08-21T02:37:20;16.00;99.90
39997;DHT22;25688;52.338;21.072;2022-08-21T02:39:46;15.90;99.90
39997;DHT22;25688;52.338;21.072;2022-08-21T02:42:12;15.90;99.90
39997;DHT22;25688;52.338;21.072;2022-08-21T02:44:37;15.80;99.90
39997;DHT22;25688;52.338;21.072;2022-08-21T02:47:06;15.80;99.90
39997;DHT22;25688;52.338;21.072;2022-08-21T02:52:54;15.80;99.90
39997;DHT22;25688;52.338;21.072;2022-08-21T02:55:20;15.90;99.90
39997;DHT22;25688;52.338;21.072;2022-08-21T02:57:59;15.80;99.90
39997;DHT22;25688;52.338;21.072;2022-08-21T03:02:53;15.70;99.90
39997;DHT22;25688;52.338;21.072;2022-08-21T03:05:22;15.70;99.90
39997;DHT22;25688;52.338;21.072;2022-08-21T03:07:48;15.60;99.90
39997;DHT22;25688;52.338;21.072;2022-08-21T03:10:22;15.60;99.90
39997;DHT22;25688;52.338;21.072;2022-08-21T03:12:48;15.60;99.90
39997;DHT22;25688;52.338;21.072;2022-08-21T03:15:19;15.60;99.90
39997;DHT22;25688;52.338;21.072;2022-08-21T03:17:52;15.50;99.90
39997;DHT22;25688;52.338;21.072;2022-08-21T03:20:21;15.50;99.90
39997;DHT22;25688;52.338;21.072;2022-08-21T03:23:02;15.50;99.90
39997;DHT22;25688;52.338;21.072;2022-08-21T03:25:40;15.40;99.90
39997;DHT22;25688;52.338;21.072;2022-08-21T03:28:18;15.30;99.90
39997;DHT22;25688;52.338;21.072;2022-08-21T03:30:46;15.30;99.90
39997;DHT22;25688;52.338;21.072;2022-08-21T03:33:12;15.40;99.90
39997;DHT22;25688;52.338;21.072;2022-08-21T03:35:48;15.40;99.90
39997;DHT22;25688;52.338;21.072;2022-08-21T03:38:15;15.50;99.90
39997;DHT22;25688;52.338;21.072;2022-08-21T03:40:50;15.50;99.90
39997;DHT22;25688;52.338;21.072;2022-08-21T03:43:19;15.40;99.90
39997;DHT22;25688;52.338;21.072;2022-08-21T03:45:45;15.40;99.90
39997;DHT22;25688;52.338;21.072;2022-08-21T03:48:17;15.50;99.90
39997;DHT22;25688;52.338;21.072;2022-08-21T03:50:46;15.60;99.90
39997;DHT22;25688;52.338;21.072;2022-08-21T03:53:16;15.60;99.90
39997;DHT22;25688;52.338;21.072;2022-08-21T03:55:42;15.60;99.90
39997;DHT22;25688;52.338;21.072;2022-08-21T03:58:07;15.60;99.90
39997;DHT22;25688;52.338;21.072;2022-08-21T04:00:39;15.60;99.90
39997;DHT22;25688;52.338;21.072;2022-08-21T04:05:33;15.60;99.90
39997;DHT22;25688;52.338;21.072;2022-08-21T04:14:17;15.70;99.90
39997;DHT22;25688;52.338;21.072;2022-08-21T04:16:43;15.90;99.90
39997;DHT22;25688;52.338;21.072;2022-08-21T04:19:12;15.90;99.90
39997;DHT22;25688;52.338;21.072;2022-08-21T04:21:39;15.90;99.90
39997;DHT22;25688;52.338;21.072;2022-08-21T04:24:06;15.90;99.90
39997;DHT22;25688;52.338;21.072;2022-08-21T04:26:34;15.90;99.90
39997;DHT22;25688;52.338;21.072;2022-08-21T04:29:00;16.00;99.90
39997;DHT22;25688;52.338;21.072;2022-08-21T04:31:26;16.00;99.90
39997;DHT22;25688;52.338;21.072;2022-08-21T04:33:54;16.10;99.90
39997;DHT22;25688;52.338;21.072;2022-08-21T04:36:20;16.20;99.90
39997;DHT22;25688;52.338;21.072;2022-08-21T04:38:46;16.30;99.90
39997;DHT22;25688;52.338;21.072;2022-08-21T04:41:11;16.40;99.90
39997;DHT22;25688;52.338;21.072;2022-08-21T04:43:40;16.50;99.90
39997;DHT22;25688;52.338;21.072;2022-08-21T04:46:06;16.60;99.90
39997;DHT22;25688;52.338;21.072;2022-08-21T04:48:41;16.70;99.90
39997;DHT22;25688;52.338;21.072;2022-08-21T04:51:17;16.90;99.90
39997;DHT22;25688;52.338;21.072;2022-08-21T04:56:59;17.10;99.90
39997;DHT22;25688;52.338;21.072;2022-08-21T04:59:57;17.30;99.90
39997;DHT22;25688;52.338;21.072;2022-08-21T05:02:23;17.50;99.90
39997;DHT22;25688;52.338;21.072;2022-08-21T05:04:51;17.70;99.90
39997;DHT22;25688;52.338;21.072;2022-08-21T05:07:24;17.80;99.90
39997;DHT22;25688;52.338;21.072;2022-08-21T05:09:52;18.00;99.90
39997;DHT22;25688;52.338;21.072;2022-08-21T05:12:19;18.20;99.90
39997;DHT22;25688;52.338;21.072;2022-08-21T05:15:05;18.40;99.90
39997;DHT22;25688;52.338;21.072;2022-08-21T05:17:31;18.50;99.90
39997;DHT22;25688;52.338;21.072;2022-08-21T05:19:56;18.70;99.90
39997;DHT22;25688;52.338;21.072;2022-08-21T05:22:23;18.90;99.90
39997;DHT22;25688;52.338;21.072;2022-08-21T05:24:56;19.10;99.90
39997;DHT22;25688;52.338;21.072;2022-08-21T05:27:22;19.30;99.90
39997;DHT22;25688;52.338;21.072;2022-08-21T05:29:48;19.50;99.90
39997;DHT22;25688;52.338;21.072;2022-08-21T05:32:14;19.60;99.90
39997;DHT22;25688;52.338;21.072;2022-08-21T05:34:40;19.80;99.90
39997;DHT22;25688;52.338;21.072;2022-08-21T05:37:05;19.90;99.90
39997;DHT22;25688;52.338;21.072;2022-08-21T05:39:34;20.00;99.90
39997;DHT22;25688;52.338;21.072;2022-08-21T05:42:00;20.10;99.90
39997;DHT22;25688;52.338;21.072;2022-08-21T05:44:25;20.10;99.90
39997;DHT22;25688;52.338;21.072;2022-08-21T05:46:51;20.20;99.90
39997;DHT22;25688;52.338;21.072;2022-08-21T05:49:17;20.20;99.90
39997;DHT22;25688;52.338;21.072;2022-08-21T05:55:04;20.30;99.90
39997;DHT22;25688;52.338;21.072;2022-08-21T05:57:30;20.40;99.90
39997;DHT22;25688;52.338;21.072;2022-08-21T05:59:56;20.40;99.90
39997;DHT22;25688;52.338;21.072;2022-08-21T06:02:21;20.50;99.90
39997;DHT22;25688;52.338;21.072;2022-08-21T06:04:48;20.70;99.90
39997;DHT22;25688;52.338;21.072;2022-08-21T06:07:14;20.80;99.90
39997;DHT22;25688;52.338;21.072;2022-08-21T06:09:40;20.90;99.90
39997;DHT22;25688;52.338;21.072;2022-08-21T06:12:10;21.00;99.90
39997;DHT22;25688;52.338;21.072;2022-08-21T06:14:38;21.10;99.90
39997;DHT22;25688;52.338;21.072;2022-08-21T06:17:09;21.20;99.90
39997;DHT22;25688;52.338;21.072;2022-08-21T06:19:35;21.30;99.90
39997;DHT22;25688;52.338;21.072;2022-08-21T06:22:02;21.40;99.90
39997;DHT22;25688;52.338;21.072;2022-08-21T06:24:28;21.50;99.90
39997;DHT22;25688;52.338;21.072;2022-08-21T06:26:54;21.60;99.90
39997;DHT22;25688;52.338;21.072;2022-08-21T06:29:21;21.70;99.90
39997;DHT22;25688;52.338;21.072;2022-08-21T06:31:49;21.70;99.90
39997;DHT22;25688;52.338;21.072;2022-08-21T06:34:15;21.70;99.90
39997;DHT22;25688;52.338;21.072;2022-08-21T06:36:44;21.70;99.90
39997;DHT22;25688;52.338;21.072;2022-08-21T06:39:10;21.90;99.90
39997;DHT22;25688;52.338;21.072;2022-08-21T06:41:35;22.00;99.90
39997;DHT22;25688;52.338;21.072;2022-08-21T06:44:01;22.10;99.90
39997;DHT22;25688;52.338;21.072;2022-08-21T06:46:31;22.30;99.90
39997;DHT22;25688;52.338;21.072;2022-08-21T06:48:57;22.40;99.90
39997;DHT22;25688;52.338;21.072;2022-08-21T06:51:27;22.50;99.90
39997;DHT22;25688;52.338;21.072;2022-08-21T06:53:56;22.50;99.90
39997;DHT22;25688;52.338;21.072;2022-08-21T06:56:22;22.50;99.90
39997;DHT22;25688;52.338;21.072;2022-08-21T06:58:51;22.60;99.90
39997;DHT22;25688;52.338;21.072;2022-08-21T07:01:19;22.70;99.90
39997;DHT22;25688;52.338;21.072;2022-08-21T07:03:45;22.80;99.90
39997;DHT22;25688;52.338;21.072;2022-08-21T07:06:11;22.90;99.90
39997;DHT22;25688;52.338;21.072;2022-08-21T07:08:40;23.00;99.90
39997;DHT22;25688;52.338;21.072;2022-08-21T07:11:23;23.10;99.90
39997;DHT22;25688;52.338;21.072;2022-08-21T07:13:50;23.20;99.90
39997;DHT22;25688;52.338;21.072;2022-08-21T07:16:18;23.20;99.90
39997;DHT22;25688;52.338;21.072;2022-08-21T07:18:44;23.30;99.90
39997;DHT22;25688;52.338;21.072;2022-08-21T07:21:19;23.40;99.90
39997;DHT22;25688;52.338;21.072;2022-08-21T07:23:52;23.50;99.90
39997;DHT22;25688;52.338;21.072;2022-08-21T07:26:23;23.60;99.90
39997;DHT22;25688;52.338;21.072;2022-08-21T07:28:52;23.60;99.90
39997;DHT22;25688;52.338;21.072;2022-08-21T07:31:20;23.60;99.90
39997;DHT22;25688;52.338;21.072;2022-08-21T07:33:47;23.50;99.90
39997;DHT22;25688;52.338;21.072;2022-08-21T07:36:13;23.60;99.90
39997;DHT22;25688;52.338;21.072;2022-08-21T07:38:39;23.70;99.90
39997;DHT22;25688;52.338;21.072;2022-08-21T07:41:17;23.70;99.90
39997;DHT22;25688;52.338;21.072;2022-08-21T07:43:46;23.70;99.90
39997;DHT22;25688;52.338;21.072;2022-08-21T07:46:13;23.80;99.90
39997;DHT22;25688;52.338;21.072;2022-08-21T07:48:39;23.90;99.90
39997;DHT22;25688;52.338;21.072;2022-08-21T07:51:10;23.90;99.90
39997;DHT22;25688;52.338;21.072;2022-08-21T07:53:36;24.10;99.90
39997;DHT22;25688;52.338;21.072;2022-08-21T07:56:02;24.10;99.90
39997;DHT22;25688;52.338;21.072;2022-08-21T07:58:30;24.10;99.90
39997;DHT22;25688;52.338;21.072;2022-08-21T08:00:56;24.00;99.90
39997;DHT22;25688;52.338;21.072;2022-08-21T08:03:21;24.10;99.90
39997;DHT22;25688;52.338;21.072;2022-08-21T08:05:47;24.20;99.90
39997;DHT22;25688;52.338;21.072;2022-08-21T08:08:13;24.30;99.90
39997;DHT22;25688;52.338;21.072;2022-08-21T08:10:39;24.20;99.90
39997;DHT22;25688;52.338;21.072;2022-08-21T08:13:11;24.20;99.90
39997;DHT22;25688;52.338;21.072;2022-08-21T08:15:37;24.20;99.90
39997;DHT22;25688;52.338;21.072;2022-08-21T08:18:11;24.30;99.90
39997;DHT22;25688;52.338;21.072;2022-08-21T08:20:38;24.30;99.90
39997;DHT22;25688;52.338;21.072;2022-08-21T08:23:03;24.20;99.90
39997;DHT22;25688;52.338;21.072;2022-08-21T08:25:29;24.10;99.90
39997;DHT22;25688;52.338;21.072;2022-08-21T08:27:55;24.20;99.90
39997;DHT22;25688;52.338;21.072;2022-08-21T08:30:21;24.30;99.90
39997;DHT22;25688;52.338;21.072;2022-08-21T08:32:49;24.50;99.90
39997;DHT22;25688;52.338;21.072;2022-08-21T08:35:15;24.50;99.90
39997;DHT22;25688;52.338;21.072;2022-08-21T08:37:44;24.70;99.90
39997;DHT22;25688;52.338;21.072;2022-08-21T08:43:01;24.80;99.90
39997;DHT22;25688;52.338;21.072;2022-08-21T08:45:30;25.00;99.90
39997;DHT22;25688;52.338;21.072;2022-08-21T08:48:02;25.20;99.90
39997;DHT22;25688;52.338;21.072;2022-08-21T08:50:46;25.30;99.90
39997;DHT22;25688;52.338;21.072;2022-08-21T08:55:48;25.80;99.90
39997;DHT22;25688;52.338;21.072;2022-08-21T08:58:29;25.90;99.90
39997;DHT22;25688;52.338;21.072;2022-08-21T09:00:55;26.00;99.90
39997;DHT22;25688;52.338;21.072;2022-08-21T09:03:37;26.10;99.90
39997;DHT22;25688;52.338;21.072;2022-08-21T09:06:17;26.20;99.90
39997;DHT22;25688;52.338;21.072;2022-08-21T09:14:24;25.70;99.90
39997;DHT22;25688;52.338;21.072;2022-08-21T09:27:09;24.90;99.90
39997;DHT22;25688;52.338;21.072;2022-08-21T09:29:44;24.70;99.90
39997;DHT22;25688;52.338;21.072;2022-08-21T09:32:30;24.60;99.90
39997;DHT22;25688;52.338;21.072;2022-08-21T09:38:00;24.70;99.90
39997;DHT22;25688;52.338;21.072;2022-08-21T09:40:31;24.90;99.90
39997;DHT22;25688;52.338;21.072;2022-08-21T09:43:00;25.20;99.90
39997;DHT22;25688;52.338;21.072;2022-08-21T09:45:27;25.40;99.90
39997;DHT22;25688;52.338;21.072;2022-08-21T09:48:20;25.60;99.90
39997;DHT22;25688;52.338;21.072;2022-08-21T09:50:50;25.80;99.90
39997;DHT22;25688;52.338;21.072;2022-08-21T09:53:38;25.80;99.90
39997;DHT22;25688;52.338;21.072;2022-08-21T09:56:21;25.90;99.90
39997;DHT22;25688;52.338;21.072;2022-08-21T10:02:34;25.50;99.90
39997;DHT22;25688;52.338;21.072;2022-08-21T10:08:20;25.20;99.90
39997;DHT22;25688;52.338;21.072;2022-08-21T10:10:51;25.30;99.90
39997;DHT22;25688;52.338;21.072;2022-08-21T10:13:44;25.50;99.90
39997;DHT22;25688;52.338;21.072;2022-08-21T10:24:52;26.10;99.90
39997;DHT22;25688;52.338;21.072;2022-08-21T10:27:32;26.00;99.90
39997;DHT22;25688;52.338;21.072;2022-08-21T10:30:08;26.00;99.90
39997;DHT22;25688;52.338;21.072;2022-08-21T10:52:28;26.60;99.90
39997;DHT22;25688;52.338;21.072;2022-08-21T10:57:38;27.00;99.90
